createdAt,value
2023-04-20T00:00:39.355Z,97516.56
2023-04-20T00:03:22.132Z,97515.59
2023-04-20T00:05:51.682Z,97516.65
2023-04-20T00:08:21.679Z,97513.24
2023-04-20T00:10:51.646Z,97511.95
2023-04-20T00:13:22.335Z,97510.02
2023-04-20T00:15:53.698Z,97503.30
2023-04-20T00:18:23.852Z,97506.02
2023-04-20T00:20:54.107Z,97510.16
2023-04-20T00:23:23.817Z,97507.19
2023-04-20T00:25:53.381Z,97507.63
2023-04-20T00:28:23.749Z,97503.59
2023-04-20T00:30:53.405Z,97500.02
2023-04-20T00:33:22.939Z,97499.10
2023-04-20T00:35:53.344Z,97501.11
2023-04-20T00:38:24.865Z,97503.18
2023-04-20T00:40:56.255Z,97501.44
2023-04-20T00:43:26.666Z,97502.19
2023-04-20T00:45:56.533Z,97496.98
2023-04-20T00:48:26.045Z,97498.73
2023-04-20T00:50:56.333Z,97498.69
2023-04-20T00:53:25.613Z,97499.39
2023-04-20T00:55:55.805Z,97499.67
2023-04-20T00:58:25.915Z,97506.48
2023-04-20T01:00:55.150Z,97502.56
2023-04-20T01:03:25.511Z,97502.17
2023-04-20T01:05:55.712Z,97501.95
2023-04-20T01:08:29.495Z,97502.04
2023-04-20T01:11:01.923Z,97503.52
2023-04-20T01:13:31.465Z,97500.80
2023-04-20T01:16:01.598Z,97502.27
2023-04-20T01:18:48.822Z,97502.80
2023-04-20T01:21:22.680Z,97503.94
2023-04-20T01:23:52.382Z,97508.81
2023-04-20T01:26:25.760Z,97512.48
2023-04-20T01:28:56.552Z,97515.30
2023-04-20T01:31:26.383Z,97513.41
2023-04-20T01:33:55.982Z,97514.05
2023-04-20T01:36:27.705Z,97511.85
2023-04-20T01:38:58.454Z,97509.57
2023-04-20T01:41:27.398Z,97504.70
2023-04-20T01:43:59.475Z,97508.85
2023-04-20T01:46:29.159Z,97508.69
2023-04-20T01:48:58.282Z,97505.49
2023-04-20T01:51:28.736Z,97506.16
2023-04-20T01:53:58.287Z,97498.20
2023-04-20T01:56:30.445Z,97500.12
2023-04-20T01:59:01.400Z,97501.73
2023-04-20T02:01:30.997Z,97496.63
2023-04-20T02:04:03.632Z,97496.13
2023-04-20T02:06:34.057Z,97494.98
2023-04-20T02:09:04.946Z,97496.88
2023-04-20T02:11:40.287Z,97491.37
2023-04-20T02:14:09.914Z,97491.20
2023-04-20T02:16:39.729Z,97491.33
2023-04-20T02:19:10.490Z,97490.15
2023-04-20T02:21:40.405Z,97491.23
2023-04-20T02:24:10.293Z,97497.59
2023-04-20T02:26:39.844Z,97497.08
2023-04-20T02:29:11.118Z,97498.02
2023-04-20T02:31:40.854Z,97498.14
2023-04-20T02:34:11.141Z,97497.80
2023-04-20T02:36:41.529Z,97499.42
2023-04-20T02:39:16.340Z,97496.16
2023-04-20T02:41:46.256Z,97495.77
2023-04-20T02:44:16.047Z,97498.48
2023-04-20T02:46:45.471Z,97499.23
2023-04-20T02:49:14.535Z,97502.74
2023-04-20T02:51:46.067Z,97506.58
2023-04-20T02:54:15.837Z,97507.19
2023-04-20T02:56:46.334Z,97506.80
2023-04-20T02:59:17.718Z,97504.30
2023-04-20T03:01:55.980Z,97503.20
2023-04-20T03:04:28.206Z,97499.10
2023-04-20T03:07:23.585Z,97500.48
2023-04-20T03:09:54.477Z,97501.60
2023-04-20T03:12:36.993Z,97507.60
2023-04-20T03:15:31.587Z,97511.66
2023-04-20T03:18:05.705Z,97515.08
2023-04-20T03:20:35.124Z,97514.64
2023-04-20T03:23:04.583Z,97513.95
2023-04-20T03:25:34.841Z,97513.11
2023-04-20T03:28:27.653Z,97511.35
2023-04-20T03:30:57.722Z,97508.73
2023-04-20T03:33:28.662Z,97508.77
2023-04-20T03:35:57.730Z,97510.30
2023-04-20T03:38:27.752Z,97512.17
2023-04-20T03:40:57.810Z,97515.27
2023-04-20T03:43:26.753Z,97518.36
2023-04-20T03:45:57.791Z,97519.88
2023-04-20T03:48:28.600Z,97520.58
2023-04-20T03:50:59.516Z,97524.19
2023-04-20T03:53:29.410Z,97522.77
2023-04-20T03:56:00.024Z,97522.54
2023-04-20T03:58:29.934Z,97520.37
2023-04-20T04:01:39.648Z,97521.19
2023-04-20T04:04:09.785Z,97520.29
2023-04-20T04:06:40.112Z,97520.30
2023-04-20T04:09:10.450Z,97519.56
2023-04-20T04:11:40.944Z,97523.49
2023-04-20T04:14:11.453Z,97524.08
2023-04-20T04:16:44.663Z,97526.08
2023-04-20T04:19:14.908Z,97526.10
2023-04-20T04:21:44.740Z,97524.42
2023-04-20T04:24:17.843Z,97524.88
2023-04-20T04:27:16.218Z,97526.47
2023-04-20T04:29:55.046Z,97531.48
2023-04-20T04:32:27.001Z,97530.98
2023-04-20T04:34:56.724Z,97528.02
2023-04-20T04:37:28.414Z,97524.81
2023-04-20T04:39:58.548Z,97524.23
2023-04-20T04:42:37.228Z,97525.77
2023-04-20T04:45:11.795Z,97525.71
2023-04-20T04:47:44.184Z,97531.16
2023-04-20T04:50:14.267Z,97527.20
2023-04-20T04:52:43.466Z,97527.78
2023-04-20T04:55:13.866Z,97521.00
2023-04-20T04:57:45.001Z,97526.27
2023-04-20T05:00:16.508Z,97529.46
2023-04-20T05:02:46.063Z,97526.59
2023-04-20T05:05:15.986Z,97531.60
2023-04-20T05:07:46.021Z,97534.45
2023-04-20T05:10:16.369Z,97534.40
2023-04-20T05:12:49.202Z,97535.27
2023-04-20T05:15:19.432Z,97533.45
2023-04-20T05:17:50.659Z,97533.38
2023-04-20T05:20:21.846Z,97533.10
2023-04-20T05:22:51.837Z,97536.45
2023-04-20T05:25:21.606Z,97536.50
2023-04-20T05:27:51.811Z,97533.96
2023-04-20T05:30:22.123Z,97534.23
2023-04-20T05:32:52.821Z,97534.77
2023-04-20T05:35:22.800Z,97537.11
2023-04-20T05:37:52.515Z,97534.85
2023-04-20T05:40:22.580Z,97541.39
2023-04-20T05:42:52.097Z,97543.98
2023-04-20T05:45:21.487Z,97544.23
2023-04-20T05:47:56.939Z,97545.00
2023-04-20T05:50:27.575Z,97549.50
2023-04-20T05:52:59.018Z,97544.50
2023-04-20T05:55:29.146Z,97548.48
2023-04-20T05:57:58.670Z,97546.54
2023-04-20T06:00:27.623Z,97549.73
2023-04-20T06:02:57.494Z,97554.56
2023-04-20T06:05:27.784Z,97558.21
2023-04-20T06:07:57.092Z,97552.70
2023-04-20T06:10:26.272Z,97553.53
2023-04-20T06:12:55.548Z,97550.20
2023-04-20T06:15:24.729Z,97548.02
2023-04-20T06:17:56.037Z,97546.58
2023-04-20T06:20:25.355Z,97548.52
2023-04-20T06:22:55.878Z,97548.59
2023-04-20T06:25:26.041Z,97544.38
2023-04-20T06:27:55.741Z,97542.52
2023-04-20T06:30:26.193Z,97537.34
2023-04-20T06:32:57.158Z,97538.36
2023-04-20T06:35:27.311Z,97536.50
2023-04-20T06:37:58.147Z,97532.25
2023-04-20T06:40:30.096Z,97530.83
2023-04-20T06:42:59.890Z,97532.84
2023-04-20T06:45:29.379Z,97534.30
2023-04-20T06:47:59.237Z,97533.75
2023-04-20T06:50:28.587Z,97531.58
2023-04-20T06:52:58.182Z,97533.15
2023-04-20T06:55:27.856Z,97532.52
2023-04-20T06:57:57.241Z,97536.59
2023-04-20T07:00:28.669Z,97540.44
2023-04-20T07:02:58.952Z,97540.11
2023-04-20T07:05:29.250Z,97540.90
2023-04-20T07:07:59.748Z,97539.44
2023-04-20T07:10:29.726Z,97537.20
2023-04-20T07:12:59.716Z,97538.31
2023-04-20T07:15:30.637Z,97539.98
2023-04-20T07:18:01.095Z,97539.40
2023-04-20T07:20:31.154Z,97537.01
2023-04-20T07:23:02.039Z,97535.23
2023-04-20T07:25:33.502Z,97540.71
2023-04-20T07:28:03.640Z,97538.48
2023-04-20T07:30:32.989Z,97536.83
2023-04-20T07:33:03.852Z,97541.17
2023-04-20T07:35:33.908Z,97541.94
2023-04-20T07:38:07.070Z,97544.11
2023-04-20T07:40:39.101Z,97540.56
2023-04-20T07:43:09.103Z,97544.93
2023-04-20T07:45:42.929Z,97539.82
2023-04-20T07:48:12.857Z,97537.44
2023-04-20T07:50:42.865Z,97539.77
2023-04-20T07:53:13.221Z,97535.43
2023-04-20T07:55:42.717Z,97538.21
2023-04-20T07:58:14.439Z,97534.65
2023-04-20T08:00:47.941Z,97536.00
2023-04-20T08:03:17.525Z,97533.06
2023-04-20T08:05:48.455Z,97532.33
2023-04-20T08:08:18.294Z,97526.95
2023-04-20T08:10:47.402Z,97526.80
2023-04-20T08:13:17.971Z,97525.91
2023-04-20T08:15:48.115Z,97523.48
2023-04-20T08:18:18.362Z,97521.46
2023-04-20T08:20:49.127Z,97522.59
2023-04-20T08:23:18.624Z,97523.02
2023-04-20T08:25:48.633Z,97518.31
2023-04-20T08:28:32.496Z,97521.90
2023-04-20T08:31:05.092Z,97518.80
2023-04-20T08:33:35.005Z,97518.86
2023-04-20T08:36:04.081Z,97515.04
2023-04-20T08:38:34.363Z,97510.85
2023-04-20T08:41:04.073Z,97514.14
2023-04-20T08:43:33.252Z,97511.42
2023-04-20T08:46:04.716Z,97510.98
2023-04-20T08:48:38.567Z,97508.52
2023-04-20T08:51:08.609Z,97505.80
2023-04-20T08:53:38.399Z,97505.56
2023-04-20T08:56:08.851Z,97501.21
2023-04-20T08:58:44.295Z,97498.80
2023-04-20T09:01:17.606Z,97492.80
2023-04-20T09:03:52.752Z,97500.94
2023-04-20T09:06:23.496Z,97502.20
2023-04-20T09:08:55.009Z,97505.52
2023-04-20T09:11:26.350Z,97502.98
2023-04-20T09:14:10.568Z,97500.21
2023-04-20T09:16:54.241Z,97502.98
2023-04-20T09:19:26.635Z,97502.73
2023-04-20T09:21:57.980Z,97499.36
2023-04-20T09:24:38.907Z,97498.45
2023-04-20T09:27:19.372Z,97490.15
2023-04-20T09:29:59.628Z,97483.05
2023-04-20T09:32:36.019Z,97480.95
2023-04-20T09:35:07.840Z,97480.14
2023-04-20T09:37:49.412Z,97478.34
2023-04-20T09:40:21.265Z,97480.25
2023-04-20T09:42:51.698Z,97479.21
2023-04-20T09:45:23.169Z,97480.86
2023-04-20T09:47:54.400Z,97478.28
2023-04-20T09:50:32.046Z,97476.71
2023-04-20T09:53:09.775Z,97474.97
2023-04-20T09:55:38.576Z,97476.56
2023-04-20T09:58:08.560Z,97471.88
2023-04-20T10:00:37.632Z,97474.10
2023-04-20T10:03:09.929Z,97471.80
2023-04-20T10:05:40.224Z,97472.48
2023-04-20T10:08:09.298Z,97474.88
2023-04-20T10:10:50.420Z,97470.02
2023-04-20T10:13:22.297Z,97472.96
2023-04-20T10:15:52.498Z,97468.15
2023-04-20T10:18:25.186Z,97469.38
2023-04-20T10:21:10.022Z,97464.58
2023-04-20T10:23:52.822Z,97457.94
2023-04-20T10:26:23.627Z,97458.83
2023-04-20T10:28:53.445Z,97460.25
2023-04-20T10:31:22.925Z,97461.17
2023-04-20T10:33:55.539Z,97466.83
2023-04-20T10:36:31.924Z,97464.19
2023-04-20T10:39:05.714Z,97460.39
2023-04-20T10:41:35.765Z,97462.25
2023-04-20T10:44:09.181Z,97468.38
2023-04-20T10:46:38.538Z,97466.54
2023-04-20T10:49:09.618Z,97465.92
2023-04-20T10:51:50.079Z,97466.08
2023-04-20T10:54:20.641Z,97464.66
2023-04-20T10:56:53.207Z,97465.75
2023-04-20T10:59:25.525Z,97468.75
2023-04-20T11:02:00.134Z,97466.42
2023-04-20T11:04:33.993Z,97467.20
2023-04-20T11:07:10.733Z,97466.66
2023-04-20T11:09:40.611Z,97468.67
2023-04-20T11:12:15.054Z,97463.13
2023-04-20T11:14:56.219Z,97459.21
2023-04-20T11:17:39.832Z,97458.39
2023-04-20T11:20:17.722Z,97458.65
2023-04-20T11:23:00.283Z,97460.06
2023-04-20T11:25:29.548Z,97458.14
2023-04-20T11:28:11.746Z,97458.87
2023-04-20T11:30:42.532Z,97457.10
2023-04-20T11:33:14.437Z,97457.69
2023-04-20T11:35:44.737Z,97456.84
2023-04-20T11:38:14.008Z,97454.34
2023-04-20T11:40:43.936Z,97450.66
2023-04-20T11:43:12.846Z,97453.36
2023-04-20T11:45:42.671Z,97451.38
2023-04-20T11:48:11.848Z,97450.31
2023-04-20T11:50:42.668Z,97449.50
2023-04-20T11:53:15.372Z,97446.13
2023-04-20T11:55:44.974Z,97448.10
2023-04-20T11:58:14.019Z,97444.13
2023-04-20T12:00:43.906Z,97444.83
2023-04-20T12:03:13.262Z,97448.27
2023-04-20T12:05:43.558Z,97446.59
2023-04-20T12:08:13.815Z,97448.64
2023-04-20T12:10:43.661Z,97450.79
2023-04-20T12:13:12.747Z,97447.04
2023-04-20T12:15:42.284Z,97446.99
2023-04-20T12:18:12.064Z,97446.95
2023-04-20T12:20:42.142Z,97446.08
2023-04-20T12:23:11.600Z,97446.94
2023-04-20T12:25:40.651Z,97447.92
2023-04-20T12:28:09.655Z,97450.79
2023-04-20T12:30:39.924Z,97452.35
2023-04-20T12:33:09.309Z,97448.48
2023-04-20T12:35:39.518Z,97445.65
2023-04-20T12:38:08.621Z,97447.13
2023-04-20T12:40:38.169Z,97448.36
2023-04-20T12:43:07.105Z,97448.75
2023-04-20T12:45:36.832Z,97443.63
2023-04-20T12:48:06.988Z,97442.50
2023-04-20T12:50:36.359Z,97443.08
2023-04-20T12:53:06.322Z,97441.44
2023-04-20T12:55:37.570Z,97440.69
2023-04-20T12:58:07.489Z,97440.19
2023-04-20T13:00:37.434Z,97435.55
2023-04-20T13:03:07.390Z,97437.62
2023-04-20T13:05:37.018Z,97439.20
2023-04-20T13:08:06.506Z,97438.71
2023-04-20T13:10:39.960Z,97434.81
2023-04-20T13:13:11.684Z,97434.77
2023-04-20T13:15:41.738Z,97434.90
2023-04-20T13:18:14.207Z,97428.14
2023-04-20T13:20:44.930Z,97428.33
2023-04-20T13:23:15.442Z,97432.52
2023-04-20T13:25:46.487Z,97432.10
2023-04-20T13:28:15.936Z,97435.48
2023-04-20T13:30:45.824Z,97432.02
2023-04-20T13:33:15.387Z,97429.89
2023-04-20T13:35:46.670Z,97430.38
2023-04-20T13:38:16.820Z,97426.30
2023-04-20T13:40:48.789Z,97426.14
2023-04-20T13:43:20.111Z,97425.11
2023-04-20T13:45:50.943Z,97425.91
2023-04-20T13:48:22.082Z,97423.55
2023-04-20T13:50:52.020Z,97423.63
2023-04-20T13:53:22.392Z,97423.56
2023-04-20T13:55:51.954Z,97420.58
2023-04-20T13:58:21.653Z,97421.67
2023-04-20T14:00:51.116Z,97429.19
2023-04-20T14:03:21.638Z,97425.35
2023-04-20T14:05:51.753Z,97426.05
2023-04-20T14:08:23.843Z,97429.54
2023-04-20T14:10:54.057Z,97428.14
2023-04-20T14:13:24.282Z,97425.74
2023-04-20T14:15:57.804Z,97429.06
2023-04-20T14:18:27.794Z,97425.26
2023-04-20T14:20:58.052Z,97424.23
2023-04-20T14:23:27.299Z,97422.49
2023-04-20T14:25:57.131Z,97420.80
2023-04-20T14:28:26.445Z,97425.98
2023-04-20T14:30:56.442Z,97425.39
2023-04-20T14:33:26.629Z,97426.13
2023-04-20T14:35:56.216Z,97435.38
2023-04-20T14:38:25.977Z,97434.62
2023-04-20T14:40:55.797Z,97431.63
2023-04-20T14:43:25.559Z,97430.68
2023-04-20T14:45:55.748Z,97434.89
2023-04-20T14:48:25.477Z,97432.92
2023-04-20T14:50:54.921Z,97432.19
2023-04-20T14:53:24.976Z,97433.66
2023-04-20T14:55:56.014Z,97430.08
2023-04-20T14:58:25.976Z,97437.43
2023-04-20T15:00:55.694Z,97431.95
2023-04-20T15:03:24.808Z,97433.67
2023-04-20T15:06:02.024Z,97433.42
2023-04-20T15:08:31.248Z,97438.07
2023-04-20T15:11:02.502Z,97439.60
2023-04-20T15:13:41.673Z,97435.04
2023-04-20T15:16:11.305Z,97435.48
2023-04-20T15:18:41.099Z,97431.46
2023-04-20T15:21:11.252Z,97434.75
2023-04-20T15:23:40.679Z,97438.95
2023-04-20T15:26:10.024Z,97439.40
2023-04-20T15:28:39.127Z,97440.80
2023-04-20T15:31:09.010Z,97440.85
2023-04-20T15:33:38.686Z,97442.82
2023-04-20T15:36:08.785Z,97444.50
2023-04-20T15:38:38.511Z,97442.87
2023-04-20T15:41:08.125Z,97440.10
2023-04-20T15:43:37.204Z,97436.01
2023-04-20T15:46:06.680Z,97435.84
2023-04-20T15:48:36.837Z,97437.83
2023-04-20T15:51:06.223Z,97436.70
2023-04-20T15:53:35.661Z,97435.33
2023-04-20T15:56:05.241Z,97436.30
2023-04-20T15:58:35.141Z,97440.34
2023-04-20T16:01:05.463Z,97438.70
2023-04-20T16:03:34.982Z,97442.98
2023-04-20T16:06:04.757Z,97440.39
2023-04-20T16:08:34.630Z,97440.32
2023-04-20T16:11:04.903Z,97436.92
2023-04-20T16:13:37.013Z,97438.09
2023-04-20T16:16:06.789Z,97436.64
2023-04-20T16:18:36.350Z,97436.59
2023-04-20T16:21:06.784Z,97438.06
2023-04-20T16:23:36.216Z,97438.90
2023-04-20T16:26:06.057Z,97438.30
2023-04-20T16:28:35.460Z,97439.63
2023-04-20T16:31:06.225Z,97439.05
2023-04-20T16:33:37.182Z,97440.33
2023-04-20T16:36:07.056Z,97443.02
2023-04-20T16:38:35.974Z,97442.48
2023-04-20T16:41:04.983Z,97443.58
2023-04-20T16:43:34.718Z,97444.52
2023-04-20T16:46:13.590Z,97448.08
2023-04-20T16:48:43.190Z,97451.27
2023-04-20T16:51:13.993Z,97448.31
2023-04-20T16:53:45.684Z,97449.52
2023-04-20T16:56:15.896Z,97448.92
2023-04-20T16:58:45.839Z,97455.77
2023-04-20T17:01:15.960Z,97459.34
2023-04-20T17:03:45.518Z,97457.55
2023-04-20T17:06:14.905Z,97459.30
2023-04-20T17:08:44.351Z,97454.44
2023-04-20T17:11:16.224Z,97461.33
2023-04-20T17:13:45.575Z,97460.27
2023-04-20T17:16:14.810Z,97457.96
2023-04-20T17:18:44.428Z,97461.28
2023-04-20T17:21:14.371Z,97461.44
2023-04-20T17:23:43.679Z,97464.73
2023-04-20T17:26:13.408Z,97468.47
2023-04-20T17:28:44.919Z,97469.30
2023-04-20T17:31:14.688Z,97470.77
2023-04-20T17:33:45.409Z,97472.19
2023-04-20T17:36:15.202Z,97474.52
2023-04-20T17:38:44.679Z,97478.80
2023-04-20T17:41:14.276Z,97478.33
2023-04-20T17:43:43.796Z,97478.39
2023-04-20T17:46:14.017Z,97483.68
2023-04-20T17:48:43.263Z,97484.02
2023-04-20T17:51:15.817Z,97482.05
2023-04-20T17:53:48.405Z,97487.14
2023-04-20T17:56:17.498Z,97491.35
2023-04-20T17:58:47.054Z,97495.81
2023-04-20T18:01:16.514Z,97496.30
2023-04-20T18:03:48.892Z,97498.05
2023-04-20T18:06:21.806Z,97497.88
2023-04-20T18:08:51.518Z,97498.71
2023-04-20T18:11:20.645Z,97500.71
2023-04-20T18:13:50.525Z,97496.73
2023-04-20T18:16:19.616Z,97496.81
2023-04-20T18:18:52.193Z,97500.89
2023-04-20T18:21:22.499Z,97505.23
2023-04-20T18:23:52.720Z,97511.75
2023-04-20T18:26:24.285Z,97512.86
2023-04-20T18:28:55.795Z,97515.08
2023-04-20T18:31:25.682Z,97514.34
2023-04-20T18:33:55.359Z,97519.95
2023-04-20T18:36:24.841Z,97526.31
2023-04-20T18:38:56.024Z,97531.40
2023-04-20T18:41:26.520Z,97535.08
2023-04-20T18:43:57.419Z,97537.80
2023-04-20T18:46:27.454Z,97543.27
2023-04-20T18:48:58.078Z,97546.43
2023-04-20T18:51:29.128Z,97546.70
2023-04-20T18:53:58.887Z,97545.60
2023-04-20T18:56:31.666Z,97542.73
2023-04-20T18:59:02.047Z,97543.59
2023-04-20T19:01:33.506Z,97546.23
2023-04-20T19:04:03.968Z,97549.11
2023-04-20T19:06:36.135Z,97546.23
2023-04-20T19:09:08.030Z,97547.44
2023-04-20T19:11:37.496Z,97550.75
2023-04-20T19:14:07.195Z,97548.41
2023-04-20T19:16:37.302Z,97550.16
2023-04-20T19:19:07.009Z,97551.71
2023-04-20T19:21:36.714Z,97554.77
2023-04-20T19:24:06.854Z,97550.71
2023-04-20T19:26:36.149Z,97551.02
2023-04-20T19:29:06.048Z,97551.91
2023-04-20T19:31:40.614Z,97549.98
2023-04-20T19:34:13.683Z,97554.03
2023-04-20T19:36:44.745Z,97550.78
2023-04-20T19:39:14.865Z,97549.73
2023-04-20T19:41:44.865Z,97552.98
2023-04-20T19:44:15.129Z,97555.70
2023-04-20T19:46:44.823Z,97558.73
2023-04-20T19:49:13.714Z,97562.01
2023-04-20T19:51:43.511Z,97564.48
2023-04-20T19:54:17.070Z,97564.04
2023-04-20T19:56:46.371Z,97562.66
2023-04-20T19:59:16.300Z,97560.40
2023-04-20T20:01:46.105Z,97558.58
2023-04-20T20:04:15.909Z,97563.02
2023-04-20T20:06:49.290Z,97557.02
2023-04-20T20:09:21.582Z,97556.17
2023-04-20T20:11:52.629Z,97557.23
2023-04-20T20:14:22.155Z,97559.27
2023-04-20T20:16:52.133Z,97563.58
2023-04-20T20:19:22.256Z,97559.44
2023-04-20T20:21:52.179Z,97560.73
2023-04-20T20:24:23.563Z,97559.14
2023-04-20T20:26:52.937Z,97557.77
2023-04-20T20:29:23.318Z,97557.65
2023-04-20T20:31:53.813Z,97555.66
2023-04-20T20:34:23.965Z,97554.24
2023-04-20T20:36:54.358Z,97554.98
2023-04-20T20:39:24.781Z,97553.23
2023-04-20T20:41:53.998Z,97553.45
2023-04-20T20:44:23.685Z,97554.79
2023-04-20T20:46:52.979Z,97555.38
2023-04-20T20:49:23.204Z,97555.88
2023-04-20T20:51:52.882Z,97555.64
2023-04-20T20:54:22.342Z,97552.52
2023-04-20T20:56:51.889Z,97557.69
2023-04-20T20:59:22.499Z,97560.98
2023-04-20T21:01:51.879Z,97563.91
2023-04-20T21:04:21.115Z,97563.81
2023-04-20T21:06:50.973Z,97565.52
2023-04-20T21:09:20.695Z,97568.80
2023-04-20T21:11:50.346Z,97572.29
2023-04-20T21:14:19.424Z,97573.58
2023-04-20T21:16:48.428Z,97575.51
2023-04-20T21:19:18.597Z,97575.14
2023-04-20T21:21:48.381Z,97578.22
2023-04-20T21:24:17.515Z,97580.13
2023-04-20T21:26:46.565Z,97581.25
2023-04-20T21:29:17.185Z,97583.44
2023-04-20T21:31:47.554Z,97587.48
2023-04-20T21:34:18.386Z,97585.12
2023-04-20T21:36:48.019Z,97584.88
2023-04-20T21:39:18.035Z,97583.05
2023-04-20T21:41:48.169Z,97581.75
2023-04-20T21:44:17.575Z,97582.79
2023-04-20T21:46:47.054Z,97579.27
2023-04-20T21:49:17.743Z,97581.77
2023-04-20T21:51:47.855Z,97580.31
2023-04-20T21:54:17.728Z,97579.17
2023-04-20T21:56:47.440Z,97577.26
2023-04-20T21:59:17.911Z,97579.27
2023-04-20T22:01:47.357Z,97580.66
2023-04-20T22:04:17.635Z,97576.39
2023-04-20T22:06:47.441Z,97575.48
2023-04-20T22:09:18.563Z,97573.73
2023-04-20T22:11:50.333Z,97576.86
2023-04-20T22:14:20.341Z,97578.33
2023-04-20T22:16:49.804Z,97578.09
2023-04-20T22:19:19.523Z,97576.14
2023-04-20T22:21:49.341Z,97575.52
2023-04-20T22:24:19.223Z,97582.33
2023-04-20T22:26:49.411Z,97580.08
2023-04-20T22:29:18.638Z,97579.75
2023-04-20T22:31:49.467Z,97578.24
2023-04-20T22:34:18.522Z,97577.64
2023-04-20T22:36:49.124Z,97575.16
2023-04-20T22:39:18.789Z,97572.01
2023-04-20T22:41:48.518Z,97570.61
2023-04-20T22:44:18.033Z,97572.04
2023-04-20T22:46:47.283Z,97575.92
2023-04-20T22:49:17.347Z,97575.80
2023-04-20T22:51:46.737Z,97578.42
2023-04-20T22:54:16.569Z,97579.39
2023-04-20T22:56:45.649Z,97578.55
2023-04-20T22:59:16.653Z,97577.26
2023-04-20T23:01:46.169Z,97582.98
2023-04-20T23:04:16.070Z,97586.09
2023-04-20T23:06:45.752Z,97584.16
2023-04-20T23:09:17.799Z,97583.63
2023-04-20T23:11:47.742Z,97579.64
2023-04-20T23:14:17.231Z,97581.63
2023-04-20T23:16:47.925Z,97583.70
2023-04-20T23:19:18.262Z,97583.90
2023-04-20T23:21:47.844Z,97584.36
2023-04-20T23:24:18.268Z,97580.83
2023-04-20T23:26:47.921Z,97579.94
2023-04-20T23:29:17.667Z,97584.25
2023-04-20T23:31:47.347Z,97586.71
2023-04-20T23:34:17.655Z,97587.52
2023-04-20T23:36:47.565Z,97583.85
2023-04-20T23:39:17.930Z,97587.13
2023-04-20T23:41:48.545Z,97590.26
2023-04-20T23:44:17.851Z,97588.08
2023-04-20T23:46:47.954Z,97588.27
2023-04-20T23:49:17.663Z,97587.03
2023-04-20T23:51:50.038Z,97584.92
2023-04-20T23:54:19.594Z,97585.60
2023-04-20T23:56:49.652Z,97581.52
2023-04-20T23:59:19.351Z,97582.72
